createdAt,value
2024-03-10T00:01:10.533Z,34.15
2024-03-10T00:03:13.427Z,29.97
2024-03-10T00:05:15.750Z,28.50
2024-03-10T00:07:18.622Z,28.10
2024-03-10T00:09:21.436Z,27.30
2024-03-10T00:11:26.478Z,27.50
2024-03-10T00:13:29.368Z,28.40
2024-03-10T00:15:32.356Z,29.03
2024-03-10T00:17:36.903Z,30.70
2024-03-10T00:19:39.823Z,30.50
2024-03-10T00:21:42.587Z,31.23
2024-03-10T00:23:45.385Z,29.07
2024-03-10T00:25:48.264Z,29.60
2024-03-10T00:27:52.395Z,28.20
2024-03-10T00:29:54.196Z,29.60
2024-03-10T00:31:56.994Z,27.20
2024-03-10T00:33:59.747Z,27.90
2024-03-10T00:36:02.535Z,28.20
2024-03-10T00:38:05.620Z,29.00
2024-03-10T00:40:10.480Z,29.93
2024-03-10T00:42:13.323Z,27.90
2024-03-10T00:44:18.348Z,28.40
2024-03-10T00:46:21.172Z,28.63
2024-03-10T00:48:23.961Z,28.30
2024-03-10T00:50:26.890Z,30.07
2024-03-10T00:52:29.706Z,29.50
2024-03-10T00:54:31.509Z,29.60
2024-03-10T00:56:34.257Z,30.50
2024-03-10T00:58:37.026Z,30.93
2024-03-10T01:00:42.354Z,26.63
2024-03-10T01:02:48.797Z,29.90
2024-03-10T01:04:51.622Z,30.40
2024-03-10T01:06:54.423Z,29.87
2024-03-10T01:08:58.002Z,28.70
2024-03-10T01:11:01.946Z,28.60
2024-03-10T01:13:05.632Z,28.40
2024-03-10T01:15:09.433Z,29.60
2024-03-10T01:17:14.645Z,29.50
2024-03-10T01:19:17.416Z,27.87
2024-03-10T01:21:20.161Z,29.73
2024-03-10T01:23:23.046Z,28.20
2024-03-10T01:25:25.828Z,28.77
2024-03-10T01:27:28.591Z,29.27
2024-03-10T01:29:31.964Z,28.50
2024-03-10T01:31:34.799Z,29.43
2024-03-10T01:33:39.000Z,25.77
2024-03-10T01:35:43.852Z,29.80
2024-03-10T01:37:45.686Z,28.13
2024-03-10T01:39:48.781Z,30.07
2024-03-10T01:41:50.638Z,30.90
2024-03-10T01:43:53.398Z,28.87
2024-03-10T01:46:03.925Z,29.67
2024-03-10T01:48:07.430Z,29.40
2024-03-10T01:50:13.401Z,31.33
2024-03-10T01:52:16.177Z,28.60
2024-03-10T01:54:18.923Z,30.33
2024-03-10T01:56:22.160Z,32.80
2024-03-10T01:58:24.967Z,29.97
2024-03-10T02:00:28.029Z,31.27
2024-03-10T02:02:30.884Z,32.33
2024-03-10T02:04:34.004Z,31.33
2024-03-10T02:06:38.140Z,30.87
2024-03-10T02:08:40.170Z,30.60
2024-03-10T02:10:45.107Z,29.50
2024-03-10T02:12:47.985Z,32.67
2024-03-10T02:15:01.426Z,29.67
2024-03-10T02:17:04.836Z,29.80
2024-03-10T02:19:08.757Z,32.37
2024-03-10T02:21:12.421Z,32.30
2024-03-10T02:23:17.216Z,31.00
2024-03-10T02:25:23.885Z,29.47
2024-03-10T02:27:27.529Z,33.43
2024-03-10T02:29:44.925Z,32.83
2024-03-10T02:32:05.243Z,32.57
2024-03-10T02:34:25.560Z,31.13
2024-03-10T02:36:45.167Z,31.90
2024-03-10T02:39:05.573Z,31.30
2024-03-10T02:41:26.069Z,32.83
2024-03-10T02:43:47.795Z,31.93
2024-03-10T02:46:07.359Z,31.43
2024-03-10T02:48:10.937Z,31.60
2024-03-10T02:50:14.160Z,32.50
2024-03-10T02:52:16.940Z,33.23
2024-03-10T02:54:19.854Z,34.87
2024-03-10T02:56:23.829Z,32.07
2024-03-10T02:58:26.658Z,31.80
2024-03-10T03:00:31.497Z,31.27
2024-03-10T03:02:34.329Z,33.03
2024-03-10T03:04:37.128Z,34.97
2024-03-10T03:06:39.905Z,37.57
2024-03-10T03:08:41.750Z,34.20
2024-03-10T03:10:44.665Z,34.37
2024-03-10T03:12:48.143Z,35.20
2024-03-10T03:14:50.919Z,34.13
2024-03-10T03:16:55.923Z,35.53
2024-03-10T03:18:58.803Z,33.70
2024-03-10T03:21:01.615Z,34.07
2024-03-10T03:23:05.517Z,35.80
2024-03-10T03:25:09.188Z,34.87
2024-03-10T03:27:11.977Z,33.87
2024-03-10T03:29:14.775Z,34.70
2024-03-10T03:31:18.395Z,34.60
2024-03-10T03:33:22.494Z,34.27
2024-03-10T03:35:25.300Z,36.30
2024-03-10T03:37:28.069Z,35.17
2024-03-10T03:39:30.819Z,35.60
2024-03-10T03:41:33.635Z,38.20
2024-03-10T03:43:36.613Z,37.37
2024-03-10T03:45:39.365Z,35.17
2024-03-10T03:47:42.237Z,37.60
2024-03-10T03:49:47.224Z,36.40
2024-03-10T03:51:49.978Z,36.70
2024-03-10T03:53:51.807Z,35.60
2024-03-10T03:55:54.611Z,37.77
2024-03-10T03:57:57.385Z,37.50
2024-03-10T04:00:00.151Z,36.13
2024-03-10T04:02:03.374Z,36.63
2024-03-10T04:04:06.226Z,37.20
2024-03-10T04:06:10.290Z,39.10
2024-03-10T04:08:13.782Z,39.03
2024-03-10T04:10:16.676Z,37.43
2024-03-10T04:12:19.776Z,36.73
2024-03-10T04:14:22.960Z,35.83
2024-03-10T04:16:25.894Z,36.70
2024-03-10T04:18:29.573Z,38.10
2024-03-10T04:20:32.693Z,36.80
2024-03-10T04:22:36.853Z,37.57
2024-03-10T04:24:40.722Z,38.10
2024-03-10T04:26:43.915Z,37.80
2024-03-10T04:28:46.885Z,39.87
2024-03-10T04:30:49.845Z,39.37
2024-03-10T04:32:53.074Z,37.50
2024-03-10T04:34:55.733Z,38.50
2024-03-10T04:36:58.589Z,39.83
2024-03-10T04:39:02.706Z,38.53
2024-03-10T04:41:06.371Z,39.30
2024-03-10T04:43:08.168Z,40.50
2024-03-10T04:45:12.395Z,38.47
2024-03-10T04:47:15.220Z,39.70
2024-03-10T04:49:19.061Z,40.87
2024-03-10T04:51:21.895Z,37.87
2024-03-10T04:53:24.685Z,38.53
2024-03-10T04:55:30.144Z,38.07
2024-03-10T04:57:34.124Z,40.20
2024-03-10T04:59:37.178Z,40.70
2024-03-10T05:01:40.130Z,39.30
2024-03-10T05:03:43.315Z,41.90
2024-03-10T05:05:46.101Z,39.93
2024-03-10T05:07:52.424Z,41.50
2024-03-10T05:09:55.358Z,41.03
2024-03-10T05:11:59.561Z,40.90
2024-03-10T05:14:02.494Z,41.67
2024-03-10T05:16:05.640Z,41.10
2024-03-10T05:18:09.151Z,42.63
2024-03-10T05:20:12.904Z,40.67
2024-03-10T05:22:15.764Z,44.07
2024-03-10T05:24:18.540Z,43.00
2024-03-10T05:26:21.340Z,44.30
2024-03-10T05:28:25.461Z,40.50
2024-03-10T05:30:28.208Z,44.93
2024-03-10T05:32:31.111Z,43.87
2024-03-10T05:34:33.530Z,42.40
2024-03-10T05:36:36.270Z,46.57
2024-03-10T05:38:39.033Z,44.80
2024-03-10T05:40:41.778Z,43.40
2024-03-10T05:42:44.553Z,44.70
2024-03-10T05:44:48.653Z,42.03
2024-03-10T05:46:51.542Z,42.73
2024-03-10T05:48:56.956Z,46.00
2024-03-10T05:50:59.829Z,45.00
2024-03-10T05:53:02.620Z,44.30
2024-03-10T05:55:08.128Z,43.73
2024-03-10T05:57:11.265Z,44.17
2024-03-10T05:59:14.738Z,43.87
2024-03-10T06:01:24.661Z,44.47
2024-03-10T06:03:27.637Z,44.70
2024-03-10T06:05:30.536Z,56.38
2024-03-10T06:07:32.389Z,49.50
2024-03-10T06:09:35.734Z,47.90
2024-03-10T06:11:38.694Z,49.30
2024-03-10T06:13:41.141Z,46.10
2024-03-10T06:15:44.207Z,43.80
2024-03-10T06:18:05.117Z,44.70
2024-03-10T06:20:26.921Z,42.70
2024-03-10T06:22:47.498Z,44.60
2024-03-10T06:25:08.583Z,45.00
2024-03-10T06:27:11.349Z,44.77
2024-03-10T06:29:14.190Z,43.97
2024-03-10T06:31:16.954Z,44.60
2024-03-10T06:33:21.602Z,45.80
2024-03-10T06:35:24.568Z,47.03
2024-03-10T06:37:27.543Z,46.27
2024-03-10T06:39:30.303Z,42.80
2024-03-10T06:41:34.688Z,43.97
2024-03-10T06:43:38.631Z,46.10
2024-03-10T06:45:43.537Z,44.80
2024-03-10T06:47:46.413Z,43.93
2024-03-10T06:49:51.611Z,43.27
2024-03-10T06:51:54.449Z,47.37
2024-03-10T06:53:57.233Z,46.20
2024-03-10T06:56:01.573Z,47.23
2024-03-10T06:58:05.144Z,48.17
2024-03-10T07:00:13.449Z,48.20
2024-03-10T07:02:16.685Z,45.83
2024-03-10T07:04:19.849Z,46.43
2024-03-10T07:06:24.135Z,45.13
2024-03-10T07:08:27.012Z,46.20
2024-03-10T07:10:29.807Z,46.53
2024-03-10T07:12:32.557Z,45.20
2024-03-10T07:14:36.433Z,46.60
2024-03-10T07:16:39.249Z,45.37
2024-03-10T07:18:42.906Z,45.57
2024-03-10T07:20:47.059Z,45.70
2024-03-10T07:22:51.454Z,45.50
2024-03-10T07:24:54.253Z,46.97
2024-03-10T07:26:57.021Z,45.17
2024-03-10T07:28:59.799Z,44.60
2024-03-10T07:31:02.574Z,43.43
2024-03-10T07:33:04.951Z,48.30
2024-03-10T07:35:10.420Z,43.60
2024-03-10T07:37:13.550Z,46.10
2024-03-10T07:39:16.675Z,45.20
2024-03-10T07:41:20.162Z,44.80
2024-03-10T07:43:22.040Z,43.20
2024-03-10T07:45:24.844Z,43.90
2024-03-10T07:47:27.925Z,43.37
2024-03-10T07:49:30.764Z,45.03
2024-03-10T07:51:33.506Z,45.93
2024-03-10T07:53:35.320Z,43.80
2024-03-10T07:55:40.649Z,45.27
2024-03-10T07:57:43.405Z,43.03
2024-03-10T07:59:46.165Z,42.00
2024-03-10T08:01:50.463Z,42.20
2024-03-10T08:03:55.356Z,42.87
2024-03-10T08:05:58.113Z,42.83
2024-03-10T08:07:59.953Z,42.10
2024-03-10T08:10:03.312Z,43.40
2024-03-10T08:12:09.023Z,43.53
2024-03-10T08:14:12.015Z,41.83
2024-03-10T08:16:15.218Z,43.80
2024-03-10T08:18:19.121Z,42.30
2024-03-10T08:20:22.185Z,40.40
2024-03-10T08:22:25.394Z,41.93
2024-03-10T08:24:28.148Z,42.60
2024-03-10T08:26:31.237Z,43.43
2024-03-10T08:28:36.695Z,42.40
2024-03-10T08:30:39.457Z,33.63
2024-03-10T08:32:42.288Z,41.70
2024-03-10T08:34:45.114Z,40.43
2024-03-10T08:36:47.871Z,40.57
2024-03-10T08:38:50.637Z,39.50
2024-03-10T08:40:54.268Z,39.73
2024-03-10T08:42:56.129Z,35.10
2024-03-10T08:45:00.219Z,40.00
2024-03-10T08:47:03.612Z,39.40
2024-03-10T08:49:06.419Z,39.47
2024-03-10T08:51:09.174Z,39.00
2024-03-10T08:53:11.960Z,37.73
2024-03-10T08:55:15.839Z,38.37
2024-03-10T08:57:18.611Z,36.83
2024-03-10T08:59:21.656Z,38.40
2024-03-10T09:01:25.786Z,38.13
2024-03-10T09:03:28.564Z,35.73
2024-03-10T09:05:30.567Z,38.63
2024-03-10T09:07:33.440Z,40.13
2024-03-10T09:09:35.866Z,40.57
2024-03-10T09:11:38.696Z,39.00
2024-03-10T09:13:42.477Z,38.30
2024-03-10T09:15:45.326Z,38.10
2024-03-10T09:17:49.920Z,37.03
2024-03-10T09:19:52.996Z,38.73
2024-03-10T09:21:55.792Z,36.63
2024-03-10T09:23:57.617Z,36.80
2024-03-10T09:26:01.767Z,36.20
2024-03-10T09:28:07.012Z,37.33
2024-03-10T09:30:09.877Z,38.07
2024-03-10T09:32:16.876Z,39.00
2024-03-10T09:34:21.972Z,35.10
2024-03-10T09:36:26.149Z,40.23
2024-03-10T09:38:29.574Z,36.60
2024-03-10T09:40:33.111Z,38.23
2024-03-10T09:42:36.327Z,36.67
2024-03-10T09:44:39.179Z,36.40
2024-03-10T09:46:41.476Z,36.47
2024-03-10T09:48:44.342Z,36.77
2024-03-10T09:50:49.965Z,33.37
2024-03-10T09:52:54.609Z,37.10
2024-03-10T09:54:58.725Z,36.43
2024-03-10T09:57:01.703Z,37.00
2024-03-10T09:59:05.785Z,38.60
2024-03-10T10:01:12.876Z,37.70
2024-03-10T10:03:16.835Z,37.27
2024-03-10T10:05:25.992Z,36.50
2024-03-10T10:07:30.292Z,36.23
2024-03-10T10:09:33.094Z,34.23
2024-03-10T10:11:36.079Z,35.60
2024-03-10T10:13:39.048Z,37.73
2024-03-10T10:15:43.882Z,34.83
2024-03-10T10:17:55.399Z,35.60
2024-03-10T10:19:58.394Z,35.70
2024-03-10T10:22:06.790Z,38.23
2024-03-10T10:24:11.791Z,35.23
2024-03-10T10:26:14.666Z,35.30
2024-03-10T10:28:18.300Z,36.20
2024-03-10T10:30:23.432Z,36.20
2024-03-10T10:32:26.523Z,35.57
2024-03-10T10:34:30.006Z,33.60
2024-03-10T10:36:35.584Z,35.70
2024-03-10T10:38:39.747Z,34.60
2024-03-10T10:40:45.948Z,25.03
2024-03-10T10:42:56.856Z,32.03
2024-03-10T10:45:04.820Z,33.83
2024-03-10T10:47:07.657Z,32.10
2024-03-10T10:49:12.307Z,33.70
2024-03-10T10:51:15.963Z,32.83
2024-03-10T10:53:19.025Z,31.50
2024-03-10T10:55:22.654Z,34.90
2024-03-10T10:57:27.196Z,35.90
2024-03-10T10:59:30.083Z,33.27
2024-03-10T11:01:32.972Z,32.20
2024-03-10T11:03:37.578Z,33.30
2024-03-10T11:05:39.513Z,36.47
2024-03-10T11:07:44.986Z,33.03
2024-03-10T11:09:47.764Z,37.10
2024-03-10T11:11:50.535Z,34.50
2024-03-10T11:13:57.268Z,31.10
2024-03-10T11:16:05.478Z,34.07
2024-03-10T11:18:27.766Z,32.40
2024-03-10T11:20:33.447Z,32.60
2024-03-10T11:22:38.891Z,33.77
2024-03-10T11:24:41.713Z,32.93
2024-03-10T11:26:44.190Z,34.10
2024-03-10T11:28:49.977Z,33.90
2024-03-10T11:31:00.170Z,34.90
2024-03-10T11:33:06.333Z,30.93
2024-03-10T11:35:09.619Z,32.03
2024-03-10T11:37:17.894Z,32.83
2024-03-10T11:39:23.407Z,33.90
2024-03-10T11:41:26.213Z,33.23
2024-03-10T11:43:28.975Z,34.67
2024-03-10T11:45:31.800Z,33.60
2024-03-10T11:47:36.090Z,33.07
2024-03-10T11:49:38.341Z,32.53
2024-03-10T11:51:41.247Z,33.63
2024-03-10T11:53:43.129Z,31.30
2024-03-10T11:55:46.400Z,32.47
2024-03-10T11:57:53.617Z,32.80
2024-03-10T11:59:56.715Z,31.40
2024-03-10T12:02:00.940Z,30.80
2024-03-10T12:04:07.328Z,33.07
2024-03-10T12:06:10.614Z,32.00
2024-03-10T12:08:14.372Z,31.27
2024-03-10T12:10:20.458Z,29.37
2024-03-10T12:12:24.311Z,33.17
2024-03-10T12:14:27.229Z,34.13
2024-03-10T12:16:30.496Z,31.93
2024-03-10T12:18:35.001Z,28.90
2024-03-10T12:20:38.757Z,30.80
2024-03-10T12:22:41.626Z,28.80
2024-03-10T12:24:44.418Z,30.27
2024-03-10T12:26:47.383Z,30.87
2024-03-10T12:28:50.340Z,30.13
2024-03-10T12:30:53.116Z,25.70
2024-03-10T12:32:56.002Z,27.37
2024-03-10T12:34:58.902Z,27.77
2024-03-10T12:37:03.716Z,27.10
2024-03-10T12:39:12.502Z,31.00
2024-03-10T12:41:15.217Z,26.77
2024-03-10T12:43:19.430Z,27.63
2024-03-10T12:45:22.475Z,26.60
2024-03-10T12:47:25.471Z,28.97
2024-03-10T12:49:28.505Z,27.53
2024-03-10T12:51:33.319Z,26.90
2024-03-10T12:53:38.430Z,27.03
2024-03-10T12:55:41.817Z,28.37
2024-03-10T12:57:45.261Z,27.37
2024-03-10T12:59:48.743Z,28.10
2024-03-10T13:01:52.024Z,28.37
2024-03-10T13:03:54.873Z,29.07
2024-03-10T13:05:58.563Z,28.30
2024-03-10T13:08:02.596Z,28.00
2024-03-10T13:10:08.822Z,28.13
2024-03-10T13:12:12.121Z,27.80
2024-03-10T13:14:15.541Z,27.30
2024-03-10T13:16:18.628Z,27.13
2024-03-10T13:18:22.940Z,27.30
2024-03-10T13:20:25.180Z,26.93
2024-03-10T13:22:28.644Z,28.10
2024-03-10T13:24:32.181Z,26.63
2024-03-10T13:26:36.336Z,26.33
2024-03-10T13:28:39.146Z,26.87
2024-03-10T13:30:41.913Z,26.70
2024-03-10T13:32:43.883Z,26.40
2024-03-10T13:34:46.705Z,27.33
2024-03-10T13:36:49.470Z,28.23
2024-03-10T13:38:52.888Z,27.83
2024-03-10T13:40:55.709Z,26.20
2024-03-10T13:42:58.904Z,27.02
2024-03-10T13:45:01.824Z,25.77
2024-03-10T13:47:05.044Z,26.50
2024-03-10T13:49:08.642Z,27.90
2024-03-10T13:51:11.691Z,26.73
2024-03-10T13:53:14.766Z,28.27
2024-03-10T13:55:17.604Z,27.53
2024-03-10T13:57:20.500Z,26.47
2024-03-10T13:59:25.000Z,24.70
2024-03-10T14:01:27.887Z,28.60
2024-03-10T14:03:30.657Z,27.07
2024-03-10T14:05:33.570Z,26.10
2024-03-10T14:07:35.425Z,26.73
2024-03-10T14:09:38.188Z,26.67
2024-03-10T14:11:41.041Z,26.27
2024-03-10T14:13:43.190Z,27.40
2024-03-10T14:15:47.820Z,27.83
2024-03-10T14:17:50.742Z,25.40
2024-03-10T14:19:55.805Z,27.70
2024-03-10T14:21:58.624Z,25.97
2024-03-10T14:24:01.412Z,25.63
2024-03-10T14:26:05.301Z,27.80
2024-03-10T14:28:08.140Z,25.87
2024-03-10T14:30:12.349Z,25.50
2024-03-10T14:32:16.769Z,27.25
2024-03-10T14:34:19.752Z,25.70
2024-03-10T14:36:22.608Z,24.00
2024-03-10T14:38:25.786Z,24.83
2024-03-10T14:40:27.616Z,25.67
2024-03-10T14:42:30.407Z,26.48
2024-03-10T14:44:33.664Z,26.20
2024-03-10T14:46:35.533Z,25.50
2024-03-10T14:48:39.673Z,26.10
2024-03-10T14:50:42.750Z,25.70
2024-03-10T14:52:45.566Z,25.17
2024-03-10T14:54:49.409Z,25.80
2024-03-10T14:56:52.212Z,26.70
2024-03-10T14:58:55.453Z,25.97
2024-03-10T15:01:01.223Z,26.50
2024-03-10T15:03:08.358Z,26.40
2024-03-10T15:05:14.087Z,27.10
2024-03-10T15:07:16.924Z,27.93
2024-03-10T15:09:19.670Z,26.93
2024-03-10T15:11:22.549Z,27.00
2024-03-10T15:13:28.422Z,26.63
2024-03-10T15:15:32.025Z,26.83
2024-03-10T15:17:35.130Z,24.63
2024-03-10T15:19:38.101Z,26.13
2024-03-10T15:21:43.890Z,27.37
2024-03-10T15:23:46.720Z,27.60
2024-03-10T15:25:51.090Z,27.03
2024-03-10T15:27:55.822Z,27.17
2024-03-10T15:29:58.584Z,27.10
2024-03-10T15:32:01.373Z,27.10
2024-03-10T15:34:06.124Z,28.97
2024-03-10T15:36:09.044Z,27.13
2024-03-10T15:38:14.571Z,27.23
2024-03-10T15:40:20.199Z,27.43
2024-03-10T15:42:23.934Z,28.33
2024-03-10T15:44:26.713Z,28.50
2024-03-10T15:46:29.517Z,27.90
2024-03-10T15:48:32.772Z,28.50
2024-03-10T15:50:34.749Z,28.50
2024-03-10T15:52:37.624Z,27.13
2024-03-10T15:54:42.010Z,27.10
2024-03-10T15:56:44.835Z,29.00
2024-03-10T15:58:51.579Z,27.83
2024-03-10T16:00:56.733Z,29.07
2024-03-10T16:03:01.108Z,26.33
2024-03-10T16:05:08.409Z,29.47
2024-03-10T16:07:11.241Z,29.33
2024-03-10T16:09:14.045Z,26.97
2024-03-10T16:11:19.561Z,28.80
2024-03-10T16:13:26.593Z,28.60
2024-03-10T16:15:32.186Z,26.73
2024-03-10T16:17:35.037Z,29.20
2024-03-10T16:19:38.003Z,27.57
2024-03-10T16:21:41.068Z,26.53
2024-03-10T16:23:44.077Z,31.60
2024-03-10T16:25:47.601Z,28.07
2024-03-10T16:27:52.976Z,26.03
2024-03-10T16:29:55.795Z,26.50
2024-03-10T16:31:58.619Z,27.43
2024-03-10T16:34:01.029Z,26.53
2024-03-10T16:36:05.192Z,29.87
2024-03-10T16:38:09.381Z,27.13
2024-03-10T16:40:13.794Z,27.80
2024-03-10T16:42:16.624Z,24.40
2024-03-10T16:44:21.255Z,24.97
2024-03-10T16:46:24.732Z,27.00
2024-03-10T16:48:28.597Z,24.93
2024-03-10T16:50:32.807Z,27.47
2024-03-10T16:52:36.538Z,25.90
2024-03-10T16:54:40.364Z,26.17
2024-03-10T16:56:43.165Z,26.73
2024-03-10T16:58:46.620Z,27.20
2024-03-10T17:00:52.724Z,26.57
2024-03-10T17:02:55.556Z,26.87
2024-03-10T17:04:58.379Z,26.43
2024-03-10T17:07:02.846Z,26.57
2024-03-10T17:09:05.824Z,25.80
2024-03-10T17:11:09.406Z,26.10
2024-03-10T17:13:12.282Z,28.95
2024-03-10T17:15:17.546Z,27.50
2024-03-10T17:17:22.157Z,25.00
2024-03-10T17:19:24.961Z,26.27
2024-03-10T17:21:27.745Z,26.53
2024-03-10T17:23:30.556Z,27.37
2024-03-10T17:25:34.858Z,28.80
2024-03-10T17:27:38.240Z,28.10
2024-03-10T17:29:41.292Z,26.50
2024-03-10T17:31:44.160Z,26.20
2024-03-10T17:33:48.511Z,26.73
2024-03-10T17:35:51.062Z,27.53
2024-03-10T17:37:53.969Z,28.07
2024-03-10T17:39:56.772Z,27.50
2024-03-10T17:41:59.537Z,27.80
2024-03-10T17:44:04.276Z,25.17
2024-03-10T17:46:07.184Z,24.93
2024-03-10T17:48:12.153Z,27.40
2024-03-10T17:50:16.631Z,27.40
2024-03-10T17:52:19.394Z,29.90
2024-03-10T17:54:22.162Z,28.10
2024-03-10T17:56:25.027Z,29.50
2024-03-10T17:58:28.791Z,29.83
2024-03-10T18:00:31.570Z,29.97
2024-03-10T18:02:33.428Z,27.67
2024-03-10T18:04:36.297Z,28.37
2024-03-10T18:06:40.468Z,28.73
2024-03-10T18:08:43.344Z,27.93
2024-03-10T18:10:47.167Z,29.00
2024-03-10T18:12:51.190Z,28.60
2024-03-10T18:14:54.912Z,28.77
2024-03-10T18:16:59.147Z,28.20
2024-03-10T18:19:01.932Z,27.40
2024-03-10T18:21:04.809Z,28.10
2024-03-10T18:23:11.024Z,28.53
2024-03-10T18:25:12.942Z,27.37
2024-03-10T18:27:15.694Z,34.33
2024-03-10T18:29:18.692Z,30.30
2024-03-10T18:31:21.567Z,30.20
2024-03-10T18:33:24.472Z,28.87
2024-03-10T18:35:27.279Z,26.93
2024-03-10T18:37:30.096Z,28.37
2024-03-10T18:39:34.941Z,38.30
2024-03-10T18:41:38.388Z,27.90
2024-03-10T18:43:41.582Z,30.13
2024-03-10T18:45:45.693Z,35.63
2024-03-10T18:47:47.926Z,29.77
2024-03-10T18:49:52.906Z,30.20
2024-03-10T18:51:54.857Z,28.67
2024-03-10T18:53:57.943Z,28.93
2024-03-10T18:56:05.193Z,30.03
2024-03-10T18:58:09.705Z,30.10
2024-03-10T19:00:14.066Z,26.53
2024-03-10T19:02:17.164Z,26.83
2024-03-10T19:04:20.291Z,29.63
2024-03-10T19:06:23.041Z,28.53
2024-03-10T19:08:27.810Z,30.67
2024-03-10T19:10:33.373Z,31.30
2024-03-10T19:12:40.758Z,30.47
2024-03-10T19:14:43.636Z,38.07
2024-03-10T19:16:46.520Z,31.50
2024-03-10T19:18:51.235Z,29.60
2024-03-10T19:20:56.562Z,32.00
2024-03-10T19:23:00.839Z,29.60
2024-03-10T19:25:03.607Z,30.20
2024-03-10T19:27:06.445Z,31.00
2024-03-10T19:29:10.786Z,31.63
2024-03-10T19:31:13.569Z,32.70
2024-03-10T19:33:16.423Z,35.27
2024-03-10T19:35:19.807Z,30.40
2024-03-10T19:37:21.668Z,29.23
2024-03-10T19:39:24.560Z,30.60
2024-03-10T19:41:27.965Z,30.73
2024-03-10T19:43:32.558Z,31.43
2024-03-10T19:45:36.829Z,30.10
2024-03-10T19:47:42.263Z,28.60
2024-03-10T19:49:47.464Z,30.40
2024-03-10T19:51:50.474Z,30.60
2024-03-10T19:53:53.263Z,31.30
2024-03-10T19:55:57.636Z,33.40
2024-03-10T19:58:00.427Z,30.40
2024-03-10T20:00:03.292Z,30.17
2024-03-10T20:02:07.710Z,32.40
2024-03-10T20:04:10.535Z,32.97
2024-03-10T20:06:13.438Z,29.00
2024-03-10T20:08:16.578Z,28.90
2024-03-10T20:10:21.363Z,35.07
2024-03-10T20:12:25.039Z,40.70
2024-03-10T20:14:28.023Z,29.27
2024-03-10T20:16:30.818Z,31.97
2024-03-10T20:18:35.667Z,34.33
2024-03-10T20:20:38.587Z,33.55
2024-03-10T20:22:41.527Z,30.60
2024-03-10T20:24:44.329Z,29.87
2024-03-10T20:26:47.128Z,30.20
2024-03-10T20:28:49.881Z,29.80
2024-03-10T20:30:52.667Z,31.57
2024-03-10T20:32:54.857Z,32.67
2024-03-10T20:34:59.082Z,32.20
2024-03-10T20:37:01.836Z,32.77
2024-03-10T20:39:05.673Z,30.60
2024-03-10T20:41:08.474Z,34.40
2024-03-10T20:43:11.251Z,30.03
2024-03-10T20:45:13.486Z,31.00
2024-03-10T20:47:16.287Z,33.90
2024-03-10T20:49:19.085Z,30.97
2024-03-10T20:51:23.181Z,30.20
2024-03-10T20:53:26.413Z,33.23
2024-03-10T20:55:28.380Z,31.23
2024-03-10T20:57:31.348Z,36.57
2024-03-10T20:59:34.258Z,30.70
2024-03-10T21:01:37.140Z,30.80
2024-03-10T21:03:39.946Z,36.30
2024-03-10T21:05:42.851Z,32.40
2024-03-10T21:07:47.069Z,31.70
2024-03-10T21:09:50.248Z,31.63
2024-03-10T21:11:53.197Z,29.30
2024-03-10T21:13:56.368Z,31.03
2024-03-10T21:16:01.654Z,33.13
2024-03-10T21:18:05.745Z,34.17
2024-03-10T21:20:12.555Z,27.67
2024-03-10T21:22:20.337Z,30.98
2024-03-10T21:24:24.454Z,33.47
2024-03-10T21:26:27.285Z,28.77
2024-03-10T21:28:30.591Z,30.70
2024-03-10T21:30:32.449Z,29.07
2024-03-10T21:32:35.266Z,27.13
2024-03-10T21:34:38.008Z,30.07
2024-03-10T21:36:39.779Z,29.47
2024-03-10T21:38:42.937Z,29.40
2024-03-10T21:40:47.638Z,27.83
2024-03-10T21:42:50.456Z,26.87
2024-03-10T21:44:53.313Z,29.67
2024-03-10T21:46:56.089Z,28.13
2024-03-10T21:48:59.978Z,27.97
2024-03-10T21:51:02.760Z,27.80
2024-03-10T21:53:06.002Z,26.60
2024-03-10T21:55:09.217Z,28.20
2024-03-10T21:57:13.321Z,26.87
2024-03-10T21:59:16.265Z,27.57
2024-03-10T22:01:19.196Z,29.13
2024-03-10T22:03:21.953Z,26.53
2024-03-10T22:05:26.005Z,28.00
2024-03-10T22:07:29.498Z,27.57
2024-03-10T22:09:32.435Z,26.73
2024-03-10T22:11:35.224Z,28.03
2024-03-10T22:13:39.397Z,26.57
2024-03-10T22:15:42.912Z,29.10
2024-03-10T22:17:45.095Z,28.27
2024-03-10T22:19:49.662Z,26.97
2024-03-10T22:21:53.858Z,27.07
2024-03-10T22:23:56.633Z,27.97
2024-03-10T22:25:59.440Z,27.90
2024-03-10T22:28:02.210Z,27.80
2024-03-10T22:30:06.433Z,26.70
2024-03-10T22:32:09.748Z,28.80
2024-03-10T22:34:12.856Z,29.13
2024-03-10T22:36:15.611Z,30.03
2024-03-10T22:38:21.320Z,26.90
2024-03-10T22:40:24.513Z,26.33
2024-03-10T22:42:26.450Z,29.33
2024-03-10T22:44:32.170Z,28.80
2024-03-10T22:46:37.827Z,27.27
2024-03-10T22:48:40.629Z,29.77
2024-03-10T22:50:43.468Z,28.67
2024-03-10T22:52:45.943Z,27.87
2024-03-10T22:54:48.697Z,27.80
2024-03-10T22:56:51.746Z,27.87
2024-03-10T22:58:54.506Z,29.13
2024-03-10T23:00:56.561Z,28.67
2024-03-10T23:03:02.091Z,28.07
2024-03-10T23:05:08.241Z,29.40
2024-03-10T23:07:11.320Z,28.30
2024-03-10T23:09:16.010Z,27.07
2024-03-10T23:11:19.065Z,26.77
2024-03-10T23:13:21.978Z,27.53
2024-03-10T23:15:24.535Z,26.80
2024-03-10T23:17:27.950Z,28.33
2024-03-10T23:19:32.057Z,26.17
2024-03-10T23:21:35.364Z,27.03
2024-03-10T23:23:38.205Z,26.23
2024-03-10T23:25:41.003Z,26.63
2024-03-10T23:27:43.511Z,26.10
2024-03-10T23:29:47.219Z,27.00
2024-03-10T23:31:50.962Z,27.17
2024-03-10T23:33:54.096Z,26.90
2024-03-10T23:35:58.796Z,26.63
2024-03-10T23:38:00.695Z,26.40
2024-03-10T23:40:04.305Z,28.53
2024-03-10T23:42:07.929Z,28.27
2024-03-10T23:44:10.700Z,26.10
2024-03-10T23:46:13.471Z,27.13
2024-03-10T23:48:16.597Z,27.60
2024-03-10T23:50:21.701Z,25.30
2024-03-10T23:52:26.058Z,27.20
2024-03-10T23:54:29.303Z,25.15
2024-03-10T23:56:32.096Z,26.90
2024-03-10T23:58:36.017Z,26.97
